sensor_id;sensor_type;location;lat;lon;timestamp;pressure;altitude;pressure_sealevel;temperature;humidity
11329;BME280;5719;42.714;23.732;2023-06-14T00:00:17;94143.59;;;17.46;100.00
11329;BME280;5719;42.714;23.732;2023-06-14T00:02:45;94144.41;;;17.46;100.00
11329;BME280;5719;42.714;23.732;2023-06-14T00:05:12;94138.56;;;17.44;100.00
11329;BME280;5719;42.714;23.732;2023-06-14T00:07:41;94138.22;;;17.47;100.00
11329;BME280;5719;42.714;23.732;2023-06-14T00:10:09;94138.53;;;17.52;100.00
11329;BME280;5719;42.714;23.732;2023-06-14T00:12:38;94134.97;;;17.53;100.00
11329;BME280;5719;42.714;23.732;2023-06-14T00:15:07;94137.28;;;17.56;100.00
11329;BME280;5719;42.714;23.732;2023-06-14T00:17:35;94141.38;;;17.59;100.00
11329;BME280;5719;42.714;23.732;2023-06-14T00:20:05;94141.22;;;17.60;100.00
11329;BME280;5719;42.714;23.732;2023-06-14T00:22:33;94139.59;;;17.59;100.00
11329;BME280;5719;42.714;23.732;2023-06-14T00:25:02;94135.66;;;17.63;100.00
11329;BME280;5719;42.714;23.732;2023-06-14T00:27:29;94127.03;;;17.63;100.00
11329;BME280;5719;42.714;23.732;2023-06-14T00:29:55;94131.09;;;17.66;100.00
11329;BME280;5719;42.714;23.732;2023-06-14T00:32:25;94131.56;;;17.61;100.00
11329;BME280;5719;42.714;23.732;2023-06-14T00:34:53;94130.75;;;17.60;100.00
11329;BME280;5719;42.714;23.732;2023-06-14T00:37:20;94131.09;;;17.57;100.00
11329;BME280;5719;42.714;23.732;2023-06-14T00:39:47;94126.81;;;17.56;100.00
11329;BME280;5719;42.714;23.732;2023-06-14T00:42:23;94127.50;;;17.58;100.00
11329;BME280;5719;42.714;23.732;2023-06-14T00:44:50;94131.56;;;17.61;100.00
11329;BME280;5719;42.714;23.732;2023-06-14T00:47:17;94133.38;;;17.60;100.00
11329;BME280;5719;42.714;23.732;2023-06-14T00:49:47;94127.50;;;17.58;100.00
11329;BME280;5719;42.714;23.732;2023-06-14T00:52:15;94117.03;;;17.58;100.00
11329;BME280;5719;42.714;23.732;2023-06-14T00:54:43;94121.31;;;17.59;100.00
11329;BME280;5719;42.714;23.732;2023-06-14T00:57:10;94120.28;;;17.60;100.00
11329;BME280;5719;42.714;23.732;2023-06-14T00:59:43;94116.88;;;17.60;100.00
11329;BME280;5719;42.714;23.732;2023-06-14T01:02:10;94117.03;;;17.58;100.00
11329;BME280;5719;42.714;23.732;2023-06-14T01:04:37;94112.09;;;17.55;100.00
11329;BME280;5719;42.714;23.732;2023-06-14T01:07:20;94120.63;;;17.57;100.00
11329;BME280;5719;42.714;23.732;2023-06-14T01:09:54;94115.25;;;17.59;100.00
11329;BME280;5719;42.714;23.732;2023-06-14T01:12:30;94115.69;;;17.54;100.00
11329;BME280;5719;42.714;23.732;2023-06-14T01:14:59;94117.34;;;17.55;100.00
11329;BME280;5719;42.714;23.732;2023-06-14T01:17:28;94109.50;;;17.55;100.00
11329;BME280;5719;42.714;23.732;2023-06-14T01:19:57;94112.09;;;17.47;100.00
11329;BME280;5719;42.714;23.732;2023-06-14T01:22:27;94094.75;;;17.38;100.00
11329;BME280;5719;42.714;23.732;2023-06-14T01:24:55;94117.13;;;17.49;100.00
11329;BME280;5719;42.714;23.732;2023-06-14T01:27:23;94103.91;;;17.42;100.00
11329;BME280;5719;42.714;23.732;2023-06-14T01:29:55;94113.88;;;17.47;100.00
11329;BME280;5719;42.714;23.732;2023-06-14T01:32:23;94108.66;;;17.47;100.00
11329;BME280;5719;42.714;23.732;2023-06-14T01:34:51;94111.91;;;17.49;100.00
11329;BME280;5719;42.714;23.732;2023-06-14T01:37:18;94093.78;;;17.39;100.00
11329;BME280;5719;42.714;23.732;2023-06-14T01:39:47;94106.38;;;17.52;100.00
11329;BME280;5719;42.714;23.732;2023-06-14T01:42:16;94108.00;;;17.53;100.00
11329;BME280;5719;42.714;23.732;2023-06-14T01:44:44;94112.09;;;17.55;100.00
11329;BME280;5719;42.714;23.732;2023-06-14T01:47:12;94112.91;;;17.56;100.00
11329;BME280;5719;42.714;23.732;2023-06-14T01:49:39;94083.16;;;17.41;100.00
11329;BME280;5719;42.714;23.732;2023-06-14T01:52:06;94111.97;;;17.57;100.00
11329;BME280;5719;42.714;23.732;2023-06-14T01:54:35;94110.84;;;17.59;100.00
11329;BME280;5719;42.714;23.732;2023-06-14T01:57:07;94115.88;;;17.61;100.00
11329;BME280;5719;42.714;23.732;2023-06-14T01:59:35;94114.75;;;17.63;100.00
11329;BME280;5719;42.714;23.732;2023-06-14T02:02:03;94112.94;;;17.64;100.00
11329;BME280;5719;42.714;23.732;2023-06-14T02:04:30;94114.59;;;17.65;100.00
11329;BME280;5719;42.714;23.732;2023-06-14T02:06:56;94111.00;;;17.66;100.00
11329;BME280;5719;42.714;23.732;2023-06-14T02:09:23;94112.81;;;17.66;100.00
11329;BME280;5719;42.714;23.732;2023-06-14T02:11:50;94101.34;;;17.58;100.00
11329;BME280;5719;42.714;23.732;2023-06-14T02:14:17;94115.88;;;17.61;100.00
11329;BME280;5719;42.714;23.732;2023-06-14T02:16:45;94114.25;;;17.60;100.00
11329;BME280;5719;42.714;23.732;2023-06-14T02:19:14;94123.09;;;17.59;100.00
11329;BME280;5719;42.714;23.732;2023-06-14T02:21:42;94101.44;;;17.49;100.00
11329;BME280;5719;42.714;23.732;2023-06-14T02:24:08;94122.72;;;17.54;100.00
11329;BME280;5719;42.714;23.732;2023-06-14T02:26:35;94121.25;;;17.51;100.00
11329;BME280;5719;42.714;23.732;2023-06-14T02:29:03;94133.47;;;17.43;100.00
11329;BME280;5719;42.714;23.732;2023-06-14T02:31:30;94120.53;;;17.41;100.00
11329;BME280;5719;42.714;23.732;2023-06-14T02:33:59;94131.31;;;17.38;100.00
11329;BME280;5719;42.714;23.732;2023-06-14T02:36:25;94135.72;;;17.38;100.00
11329;BME280;5719;42.714;23.732;2023-06-14T02:38:52;94130.69;;;17.36;100.00
11329;BME280;5719;42.714;23.732;2023-06-14T02:41:19;94124.13;;;17.32;100.00
11329;BME280;5719;42.714;23.732;2023-06-14T02:43:46;94123.16;;;17.33;100.00
11329;BME280;5719;42.714;23.732;2023-06-14T02:46:13;94133.13;;;17.38;100.00
11329;BME280;5719;42.714;23.732;2023-06-14T02:48:40;94134.94;;;17.37;100.00
11329;BME280;5719;42.714;23.732;2023-06-14T02:51:08;94140.66;;;17.41;100.00
11329;BME280;5719;42.714;23.732;2023-06-14T02:53:35;94139.84;;;17.40;100.00
11329;BME280;5719;42.714;23.732;2023-06-14T02:56:02;94136.22;;;17.41;100.00
11329;BME280;5719;42.714;23.732;2023-06-14T02:58:30;94137.88;;;17.42;100.00
11329;BME280;5719;42.714;23.732;2023-06-14T03:00:58;94136.56;;;17.38;100.00
11329;BME280;5719;42.714;23.732;2023-06-14T03:03:28;94154.38;;;17.43;100.00
11329;BME280;5719;42.714;23.732;2023-06-14T03:05:55;94149.47;;;17.40;100.00
11329;BME280;5719;42.714;23.732;2023-06-14T03:08:23;94148.50;;;17.41;100.00
11329;BME280;5719;42.714;23.732;2023-06-14T03:10:53;94143.28;;;17.41;100.00
11329;BME280;5719;42.714;23.732;2023-06-14T03:13:21;94152.25;;;17.46;100.00
11329;BME280;5719;42.714;23.732;2023-06-14T03:15:49;94152.94;;;17.48;100.00
11329;BME280;5719;42.714;23.732;2023-06-14T03:18:17;94149.81;;;17.53;100.00
11329;BME280;5719;42.714;23.732;2023-06-14T03:20:44;94152.94;;;17.48;100.00
11329;BME280;5719;42.714;23.732;2023-06-14T03:23:12;94158.94;;;17.49;100.00
11329;BME280;5719;42.714;23.732;2023-06-14T03:25:40;94159.13;;;17.47;100.00
11329;BME280;5719;42.714;23.732;2023-06-14T03:28:08;94152.22;;;17.38;100.00
11329;BME280;5719;42.714;23.732;2023-06-14T03:30:35;94156.16;;;17.42;100.00
11329;BME280;5719;42.714;23.732;2023-06-14T03:33:02;94161.25;;;17.44;100.00
11329;BME280;5719;42.714;23.732;2023-06-14T03:35:30;94159.94;;;17.48;100.00
11329;BME280;5719;42.714;23.732;2023-06-14T03:37:57;94164.69;;;17.52;100.00
11329;BME280;5719;42.714;23.732;2023-06-14T03:40:24;94160.81;;;17.56;100.00
11329;BME280;5719;42.714;23.732;2023-06-14T03:42:54;94161.78;;;17.55;100.00
11329;BME280;5719;42.714;23.732;2023-06-14T03:45:21;94155.56;;;17.48;100.00
11329;BME280;5719;42.714;23.732;2023-06-14T03:47:48;94168.94;;;17.53;100.00
11329;BME280;5719;42.714;23.732;2023-06-14T03:50:16;94148.66;;;17.39;100.00
11329;BME280;5719;42.714;23.732;2023-06-14T03:52:43;94155.34;;;17.42;100.00
11329;BME280;5719;42.714;23.732;2023-06-14T03:55:10;94163.19;;;17.42;100.00
11329;BME280;5719;42.714;23.732;2023-06-14T03:57:38;94155.53;;;17.40;100.00
11329;BME280;5719;42.714;23.732;2023-06-14T04:00:09;94166.94;;;17.39;100.00
11329;BME280;5719;42.714;23.732;2023-06-14T04:02:37;94169.06;;;17.36;100.00
11329;BME280;5719;42.714;23.732;2023-06-14T04:05:04;94166.09;;;17.31;100.00
11329;BME280;5719;42.714;23.732;2023-06-14T04:07:34;94166.59;;;17.34;100.00
11329;BME280;5719;42.714;23.732;2023-06-14T04:10:06;94139.59;;;17.17;100.00
11329;BME280;5719;42.714;23.732;2023-06-14T04:12:33;94168.09;;;17.37;100.00
11329;BME280;5719;42.714;23.732;2023-06-14T04:15:00;94173.81;;;17.40;100.00
11329;BME280;5719;42.714;23.732;2023-06-14T04:17:29;94172.81;;;17.41;100.00
11329;BME280;5719;42.714;23.732;2023-06-14T04:19:58;94161.22;;;17.36;100.00
11329;BME280;5719;42.714;23.732;2023-06-14T04:22:25;94172.53;;;17.44;100.00
11329;BME280;5719;42.714;23.732;2023-06-14T04:24:54;94173.34;;;17.45;100.00
11329;BME280;5719;42.714;23.732;2023-06-14T04:27:22;94170.88;;;17.43;100.00
11329;BME280;5719;42.714;23.732;2023-06-14T04:29:51;94177.06;;;17.42;100.00
11329;BME280;5719;42.714;23.732;2023-06-14T04:32:23;94179.53;;;17.44;100.00
11329;BME280;5719;42.714;23.732;2023-06-14T04:34:53;94181.97;;;17.45;100.00
11329;BME280;5719;42.714;23.732;2023-06-14T04:37:20;94183.81;;;17.45;100.00
11329;BME280;5719;42.714;23.732;2023-06-14T04:39:47;94175.28;;;17.43;100.00
11329;BME280;5719;42.714;23.732;2023-06-14T04:42:15;94187.56;;;17.50;100.00
11329;BME280;5719;42.714;23.732;2023-06-14T04:44:43;94191.63;;;17.53;100.00
11329;BME280;5719;42.714;23.732;2023-06-14T04:47:10;94192.31;;;17.55;100.00
11329;BME280;5719;42.714;23.732;2023-06-14T04:49:38;94197.25;;;17.58;100.00
11329;BME280;5719;42.714;23.732;2023-06-14T04:52:07;94196.78;;;17.62;100.00
11329;BME280;5719;42.714;23.732;2023-06-14T04:54:35;94199.72;;;17.68;100.00
11329;BME280;5719;42.714;23.732;2023-06-14T04:57:04;94202.00;;;17.71;100.00
11329;BME280;5719;42.714;23.732;2023-06-14T04:59:31;94199.91;;;17.74;100.00
11329;BME280;5719;42.714;23.732;2023-06-14T05:02:01;94195.34;;;17.76;100.00
11329;BME280;5719;42.714;23.732;2023-06-14T05:04:27;94197.47;;;17.81;100.00
11329;BME280;5719;42.714;23.732;2023-06-14T05:06:54;94200.91;;;17.89;100.00
11329;BME280;5719;42.714;23.732;2023-06-14T05:09:23;94207.47;;;17.93;100.00
11329;BME280;5719;42.714;23.732;2023-06-14T05:11:50;94207.47;;;18.01;100.00
11329;BME280;5719;42.714;23.732;2023-06-14T05:14:17;94203.22;;;18.08;100.00
11329;BME280;5719;42.714;23.732;2023-06-14T05:16:44;94210.44;;;18.14;100.00
11329;BME280;5719;42.714;23.732;2023-06-14T05:19:11;94207.66;;;18.16;100.00
11329;BME280;5719;42.714;23.732;2023-06-14T05:21:38;94211.75;;;18.19;100.00
11329;BME280;5719;42.714;23.732;2023-06-14T05:24:05;94213.72;;;18.17;100.00
11329;BME280;5719;42.714;23.732;2023-06-14T05:26:35;94219.28;;;18.13;100.00
11329;BME280;5719;42.714;23.732;2023-06-14T05:29:02;94218.09;;;18.08;100.00
11329;BME280;5719;42.714;23.732;2023-06-14T05:31:29;94205.38;;;18.13;100.00
11329;BME280;5719;42.714;23.732;2023-06-14T05:33:56;94204.22;;;18.07;100.00
11329;BME280;5719;42.714;23.732;2023-06-14T05:36:23;94211.75;;;18.10;100.00
11329;BME280;5719;42.714;23.732;2023-06-14T05:38:50;94217.13;;;18.09;100.00
11329;BME280;5719;42.714;23.732;2023-06-14T05:41:23;94218.28;;;18.23;100.00
11329;BME280;5719;42.714;23.732;2023-06-14T05:43:52;94222.56;;;18.32;100.00
11329;BME280;5719;42.714;23.732;2023-06-14T05:46:19;94214.03;;;18.38;100.00
11329;BME280;5719;42.714;23.732;2023-06-14T05:48:49;94210.28;;;18.48;100.00
11329;BME280;5719;42.714;23.732;2023-06-14T05:51:17;94210.13;;;18.58;100.00
11329;BME280;5719;42.714;23.732;2023-06-14T05:53:45;94218.47;;;18.70;100.00
11329;BME280;5719;42.714;23.732;2023-06-14T05:56:12;94201.94;;;18.69;100.00
11329;BME280;5719;42.714;23.732;2023-06-14T05:58:39;94215.50;;;18.89;100.00
11329;BME280;5719;42.714;23.732;2023-06-14T06:01:08;94220.41;;;19.00;100.00
11329;BME280;5719;42.714;23.732;2023-06-14T06:03:34;94220.69;;;19.13;100.00
11329;BME280;5719;42.714;23.732;2023-06-14T06:06:01;94214.94;;;19.26;100.00
11329;BME280;5719;42.714;23.732;2023-06-14T06:08:29;94212.56;;;19.39;100.00
11329;BME280;5719;42.714;23.732;2023-06-14T06:10:57;94224.69;;;19.56;100.00
11329;BME280;5719;42.714;23.732;2023-06-14T06:13:23;94223.50;;;19.67;100.00
11329;BME280;5719;42.714;23.732;2023-06-14T06:15:50;94218.63;;;19.86;100.00
11329;BME280;5719;42.714;23.732;2023-06-14T06:18:19;94229.31;;;20.07;100.00
11329;BME280;5719;42.714;23.732;2023-06-14T06:20:46;94228.28;;;20.17;100.00
11329;BME280;5719;42.714;23.732;2023-06-14T06:23:13;94233.63;;;20.31;100.00
11329;BME280;5719;42.714;23.732;2023-06-14T06:25:40;94222.56;;;20.59;100.00
11329;BME280;5719;42.714;23.732;2023-06-14T06:28:07;94231.59;;;20.79;100.00
11329;BME280;5719;42.714;23.732;2023-06-14T06:30:34;94235.91;;;20.94;100.00
11329;BME280;5719;42.714;23.732;2023-06-14T06:33:02;94235.69;;;21.19;100.00
11329;BME280;5719;42.714;23.732;2023-06-14T06:35:31;94241.56;;;21.50;100.00
11329;BME280;5719;42.714;23.732;2023-06-14T06:37:59;94245.69;;;21.52;100.00
11329;BME280;5719;42.714;23.732;2023-06-14T06:40:26;94225.09;;;21.41;100.00
11329;BME280;5719;42.714;23.732;2023-06-14T06:42:53;94251.94;;;21.51;100.00
11329;BME280;5719;42.714;23.732;2023-06-14T06:45:21;94241.31;;;21.30;100.00
11329;BME280;5719;42.714;23.732;2023-06-14T06:47:48;94259.00;;;21.36;100.00
11329;BME280;5719;42.714;23.732;2023-06-14T06:50:16;94243.66;;;21.25;100.00
11329;BME280;5719;42.714;23.732;2023-06-14T06:52:44;94248.63;;;21.20;100.00
11329;BME280;5719;42.714;23.732;2023-06-14T06:55:12;94250.56;;;21.12;100.00
11329;BME280;5719;42.714;23.732;2023-06-14T06:57:39;94251.88;;;21.08;100.00
11329;BME280;5719;42.714;23.732;2023-06-14T07:00:08;94248.84;;;20.96;100.00
11329;BME280;5719;42.714;23.732;2023-06-14T07:02:36;94252.66;;;20.93;100.00
11329;BME280;5719;42.714;23.732;2023-06-14T07:05:04;94247.88;;;20.97;100.00
11329;BME280;5719;42.714;23.732;2023-06-14T07:07:31;94237.97;;;20.99;100.00
11329;BME280;5719;42.714;23.732;2023-06-14T07:09:59;94229.84;;;20.94;100.00
11329;BME280;5719;42.714;23.732;2023-06-14T07:12:29;94246.13;;;21.12;100.00
11329;BME280;5719;42.714;23.732;2023-06-14T07:14:57;94246.50;;;21.24;100.00
11329;BME280;5719;42.714;23.732;2023-06-14T07:17:24;94239.97;;;21.34;100.00
11329;BME280;5719;42.714;23.732;2023-06-14T07:19:51;94250.94;;;21.52;100.00
11329;BME280;5719;42.714;23.732;2023-06-14T07:22:18;94247.03;;;21.63;99.02
11329;BME280;5719;42.714;23.732;2023-06-14T07:24:45;94240.50;;;21.74;99.90
11329;BME280;5719;42.714;23.732;2023-06-14T07:27:14;94244.19;;;21.94;95.79
11329;BME280;5719;42.714;23.732;2023-06-14T07:29:41;94250.06;;;22.11;95.31
11329;BME280;5719;42.714;23.732;2023-06-14T07:32:08;94251.41;;;22.21;94.07
11329;BME280;5719;42.714;23.732;2023-06-14T07:34:34;94252.53;;;22.33;91.89
11329;BME280;5719;42.714;23.732;2023-06-14T07:37:01;94249.84;;;22.48;92.94
11329;BME280;5719;42.714;23.732;2023-06-14T07:39:28;94247.53;;;22.60;89.47
11329;BME280;5719;42.714;23.732;2023-06-14T07:41:55;94253.97;;;22.72;90.38
11329;BME280;5719;42.714;23.732;2023-06-14T07:44:23;94253.63;;;22.81;91.39
11329;BME280;5719;42.714;23.732;2023-06-14T07:46:50;94243.91;;;22.82;89.70
11329;BME280;5719;42.714;23.732;2023-06-14T07:49:17;94255.31;;;22.89;90.12
11329;BME280;5719;42.714;23.732;2023-06-14T07:51:44;94252.59;;;22.76;89.70
11329;BME280;5719;42.714;23.732;2023-06-14T07:54:12;94252.81;;;22.81;92.20
11329;BME280;5719;42.714;23.732;2023-06-14T07:56:39;94246.53;;;22.82;89.95
11329;BME280;5719;42.714;23.732;2023-06-14T07:59:06;94250.69;;;22.91;86.79
11329;BME280;5719;42.714;23.732;2023-06-14T08:01:34;94252.16;;;23.00;86.05
11329;BME280;5719;42.714;23.732;2023-06-14T08:04:01;94263.06;;;23.18;87.94
11329;BME280;5719;42.714;23.732;2023-06-14T08:06:29;94263.34;;;23.30;88.43
11329;BME280;5719;42.714;23.732;2023-06-14T08:08:56;94271.81;;;23.47;84.13
11329;BME280;5719;42.714;23.732;2023-06-14T08:11:23;94271.63;;;23.48;81.54
11329;BME280;5719;42.714;23.732;2023-06-14T08:13:50;94285.75;;;23.68;83.22
11329;BME280;5719;42.714;23.732;2023-06-14T08:16:17;94281.56;;;23.80;84.61
11329;BME280;5719;42.714;23.732;2023-06-14T08:18:46;94286.97;;;23.72;84.40
11329;BME280;5719;42.714;23.732;2023-06-14T08:21:12;94295.56;;;23.81;81.82
11329;BME280;5719;42.714;23.732;2023-06-14T08:23:40;94280.41;;;23.96;82.15
11329;BME280;5719;42.714;23.732;2023-06-14T08:26:08;94294.31;;;24.11;80.48
11329;BME280;5719;42.714;23.732;2023-06-14T08:28:35;94289.66;;;24.13;75.75
11329;BME280;5719;42.714;23.732;2023-06-14T08:31:02;94296.66;;;23.93;76.48
11329;BME280;5719;42.714;23.732;2023-06-14T08:33:29;94304.38;;;23.94;80.49
11329;BME280;5719;42.714;23.732;2023-06-14T08:36:00;94297.38;;;23.80;82.62
11329;BME280;5719;42.714;23.732;2023-06-14T08:38:27;94293.13;;;23.79;83.37
11329;BME280;5719;42.714;23.732;2023-06-14T08:40:57;94297.00;;;23.83;80.50
11329;BME280;5719;42.714;23.732;2023-06-14T08:43:24;94296.41;;;24.22;82.22
11329;BME280;5719;42.714;23.732;2023-06-14T08:45:54;94287.97;;;24.60;72.63
11329;BME280;5719;42.714;23.732;2023-06-14T08:48:26;94283.19;;;25.09;79.37
11329;BME280;5719;42.714;23.732;2023-06-14T08:50:54;94290.72;;;25.52;73.33
11329;BME280;5719;42.714;23.732;2023-06-14T08:53:31;94294.97;;;25.72;70.04
11329;BME280;5719;42.714;23.732;2023-06-14T08:55:59;94298.84;;;25.76;67.07
11329;BME280;5719;42.714;23.732;2023-06-14T08:58:28;94293.75;;;25.68;71.01
11329;BME280;5719;42.714;23.732;2023-06-14T09:00:57;94295.63;;;25.68;66.93
11329;BME280;5719;42.714;23.732;2023-06-14T09:03:24;94287.44;;;25.82;62.31
11329;BME280;5719;42.714;23.732;2023-06-14T09:05:55;94286.16;;;26.05;69.83
11329;BME280;5719;42.714;23.732;2023-06-14T09:08:25;94281.41;;;26.13;59.17
11329;BME280;5719;42.714;23.732;2023-06-14T09:10:53;94272.75;;;25.80;61.04
11329;BME280;5719;42.714;23.732;2023-06-14T09:13:21;94275.81;;;25.90;61.06
11329;BME280;5719;42.714;23.732;2023-06-14T09:15:48;94284.69;;;26.15;59.99
11329;BME280;5719;42.714;23.732;2023-06-14T09:18:15;94279.31;;;26.35;64.49
11329;BME280;5719;42.714;23.732;2023-06-14T09:20:43;94268.56;;;26.61;62.18
11329;BME280;5719;42.714;23.732;2023-06-14T09:23:12;94269.84;;;26.90;58.55
11329;BME280;5719;42.714;23.732;2023-06-14T09:25:43;94264.56;;;27.15;61.36
11329;BME280;5719;42.714;23.732;2023-06-14T09:28:11;94266.06;;;27.29;55.74
11329;BME280;5719;42.714;23.732;2023-06-14T09:30:38;94263.44;;;27.54;58.12
11329;BME280;5719;42.714;23.732;2023-06-14T09:33:06;94267.19;;;27.40;57.92
11329;BME280;5719;42.714;23.732;2023-06-14T09:35:33;94262.88;;;27.20;60.40
11329;BME280;5719;42.714;23.732;2023-06-14T09:38:01;94263.91;;;26.95;61.40
11329;BME280;5719;42.714;23.732;2023-06-14T09:40:28;94267.50;;;26.69;60.38
11329;BME280;5719;42.714;23.732;2023-06-14T09:42:55;94258.47;;;26.83;62.46
11329;BME280;5719;42.714;23.732;2023-06-14T09:45:26;94254.09;;;26.95;59.86
11329;BME280;5719;42.714;23.732;2023-06-14T09:47:55;94254.63;;;27.04;59.01
11329;BME280;5719;42.714;23.732;2023-06-14T09:50:22;94248.75;;;27.02;57.10
11329;BME280;5719;42.714;23.732;2023-06-14T09:52:52;94238.13;;;27.02;56.73
11329;BME280;5719;42.714;23.732;2023-06-14T09:55:19;94250.50;;;27.33;59.71
11329;BME280;5719;42.714;23.732;2023-06-14T09:57:47;94248.25;;;27.61;59.14
11329;BME280;5719;42.714;23.732;2023-06-14T10:00:18;94260.66;;;27.85;58.76
11329;BME280;5719;42.714;23.732;2023-06-14T10:02:53;94249.97;;;28.10;57.46
11329;BME280;5719;42.714;23.732;2023-06-14T10:05:21;94247.47;;;28.15;52.05
11329;BME280;5719;42.714;23.732;2023-06-14T10:07:53;94247.88;;;28.48;54.44
11329;BME280;5719;42.714;23.732;2023-06-14T10:10:22;94252.13;;;28.49;53.79
11329;BME280;5719;42.714;23.732;2023-06-14T10:12:49;94233.16;;;28.46;54.00
11329;BME280;5719;42.714;23.732;2023-06-14T10:15:20;94248.47;;;28.80;53.34
11329;BME280;5719;42.714;23.732;2023-06-14T10:17:52;94252.19;;;28.91;52.45
11329;BME280;5719;42.714;23.732;2023-06-14T10:20:27;94242.59;;;29.01;51.13
11329;BME280;5719;42.714;23.732;2023-06-14T10:23:00;94237.81;;;28.80;49.97
11329;BME280;5719;42.714;23.732;2023-06-14T10:25:29;94229.97;;;28.85;52.15
11329;BME280;5719;42.714;23.732;2023-06-14T10:28:03;94231.03;;;28.96;51.28
11329;BME280;5719;42.714;23.732;2023-06-14T10:30:31;94227.13;;;29.21;50.39
11329;BME280;5719;42.714;23.732;2023-06-14T10:33:05;94230.94;;;29.26;48.15
11329;BME280;5719;42.714;23.732;2023-06-14T10:35:33;94211.16;;;29.10;48.31
11329;BME280;5719;42.714;23.732;2023-06-14T10:38:09;94219.41;;;29.32;48.45
11329;BME280;5719;42.714;23.732;2023-06-14T10:40:36;94224.97;;;29.53;44.99
11329;BME280;5719;42.714;23.732;2023-06-14T10:43:21;94200.31;;;29.35;44.57
11329;BME280;5719;42.714;23.732;2023-06-14T10:46:13;94220.91;;;29.28;47.51
11329;BME280;5719;42.714;23.732;2023-06-14T10:48:42;94213.28;;;28.48;48.06
11329;BME280;5719;42.714;23.732;2023-06-14T10:51:16;94208.88;;;28.72;46.68
11329;BME280;5719;42.714;23.732;2023-06-14T10:53:47;94204.16;;;28.86;44.42
11329;BME280;5719;42.714;23.732;2023-06-14T10:56:32;94199.44;;;28.99;44.78
11329;BME280;5719;42.714;23.732;2023-06-14T10:58:59;94193.94;;;29.36;46.48
11329;BME280;5719;42.714;23.732;2023-06-14T11:01:34;94197.50;;;29.30;44.76
11329;BME280;5719;42.714;23.732;2023-06-14T11:04:11;94192.38;;;29.05;45.20
11329;BME280;5719;42.714;23.732;2023-06-14T11:06:46;94195.88;;;29.52;45.14
11329;BME280;5719;42.714;23.732;2023-06-14T11:12:21;94192.16;;;29.76;43.60
11329;BME280;5719;42.714;23.732;2023-06-14T11:14:48;94185.69;;;29.72;45.48
11329;BME280;5719;42.714;23.732;2023-06-14T11:17:15;94188.69;;;29.87;47.90
11329;BME280;5719;42.714;23.732;2023-06-14T11:19:43;94189.94;;;29.96;49.27
11329;BME280;5719;42.714;23.732;2023-06-14T11:22:10;94179.63;;;29.77;44.80
11329;BME280;5719;42.714;23.732;2023-06-14T11:24:40;94180.94;;;29.62;44.78
11329;BME280;5719;42.714;23.732;2023-06-14T11:27:07;94178.84;;;29.76;44.09
11329;BME280;5719;42.714;23.732;2023-06-14T11:29:34;94186.66;;;30.06;46.42
11329;BME280;5719;42.714;23.732;2023-06-14T11:32:01;94178.22;;;30.37;45.51
11329;BME280;5719;42.714;23.732;2023-06-14T11:34:28;94163.00;;;30.09;44.76
11329;BME280;5719;42.714;23.732;2023-06-14T11:36:56;94171.84;;;30.38;44.02
11329;BME280;5719;42.714;23.732;2023-06-14T11:39:24;94163.06;;;30.26;41.89
11329;BME280;5719;42.714;23.732;2023-06-14T11:41:53;94166.09;;;30.18;41.88
11329;BME280;5719;42.714;23.732;2023-06-14T11:44:20;94161.56;;;30.18;44.97
11329;BME280;5719;42.714;23.732;2023-06-14T11:46:48;94167.13;;;30.17;44.60
11329;BME280;5719;42.714;23.732;2023-06-14T11:49:17;94171.13;;;30.31;43.71
11329;BME280;5719;42.714;23.732;2023-06-14T11:51:44;94165.03;;;30.59;39.97
11329;BME280;5719;42.714;23.732;2023-06-14T11:54:12;94153.06;;;30.78;39.96
11329;BME280;5719;42.714;23.732;2023-06-14T11:56:39;94162.47;;;30.24;41.89
11329;BME280;5719;42.714;23.732;2023-06-14T11:59:06;94138.34;;;30.59;43.10
11329;BME280;5719;42.714;23.732;2023-06-14T12:01:36;94124.66;;;30.72;41.67
11329;BME280;5719;42.714;23.732;2023-06-14T12:04:04;94151.41;;;31.05;42.86
11329;BME280;5719;42.714;23.732;2023-06-14T12:06:31;94147.16;;;31.26;40.38
11329;BME280;5719;42.714;23.732;2023-06-14T12:09:04;94142.53;;;31.38;40.57
11329;BME280;5719;42.714;23.732;2023-06-14T12:11:35;94148.28;;;31.30;48.25
11329;BME280;5719;42.714;23.732;2023-06-14T12:14:03;94147.25;;;31.31;46.83
11329;BME280;5719;42.714;23.732;2023-06-14T12:16:31;94153.44;;;31.37;46.63
11329;BME280;5719;42.714;23.732;2023-06-14T12:19:00;94147.75;;;31.11;45.22
11329;BME280;5719;42.714;23.732;2023-06-14T12:21:28;94140.44;;;30.74;47.58
11329;BME280;5719;42.714;23.732;2023-06-14T12:23:55;94135.50;;;30.49;48.59
11329;BME280;5719;42.714;23.732;2023-06-14T12:26:24;94135.94;;;30.46;48.55
11329;BME280;5719;42.714;23.732;2023-06-14T12:28:54;94130.91;;;30.33;47.88
11329;BME280;5719;42.714;23.732;2023-06-14T12:31:20;94136.81;;;30.06;49.57
11329;BME280;5719;42.714;23.732;2023-06-14T12:33:48;94130.63;;;29.66;51.09
11329;BME280;5719;42.714;23.732;2023-06-14T12:36:16;94135.09;;;29.49;50.56
11329;BME280;5719;42.714;23.732;2023-06-14T12:38:43;94126.66;;;29.29;52.06
11329;BME280;5719;42.714;23.732;2023-06-14T12:41:11;94132.19;;;29.50;53.24
11329;BME280;5719;42.714;23.732;2023-06-14T12:43:39;94114.41;;;29.79;51.48
11329;BME280;5719;42.714;23.732;2023-06-14T12:46:08;94115.81;;;30.10;49.55
11329;BME280;5719;42.714;23.732;2023-06-14T12:48:35;94106.47;;;30.24;49.44
11329;BME280;5719;42.714;23.732;2023-06-14T12:51:02;94107.44;;;30.35;48.18
11329;BME280;5719;42.714;23.732;2023-06-14T12:53:29;94111.72;;;30.47;48.07
11329;BME280;5719;42.714;23.732;2023-06-14T12:55:56;94111.66;;;30.31;49.26
11329;BME280;5719;42.714;23.732;2023-06-14T12:58:23;94100.50;;;30.34;50.04
11329;BME280;5719;42.714;23.732;2023-06-14T13:00:50;94097.88;;;30.50;50.41
11329;BME280;5719;42.714;23.732;2023-06-14T13:03:19;94094.03;;;30.75;50.10